sensor_id;sensor_type;location;lat;lon;timestamp;pressure;altitude;pressure_sealevel;temperature;humidity
73651;BME280;61944;52.538;6.108;2023-02-15T00:01:13;102885.84;;;3.44;100.00
73651;BME280;61944;52.538;6.108;2023-02-15T00:03:38;102887.81;;;3.44;100.00
73651;BME280;61944;52.538;6.108;2023-02-15T00:06:04;102885.56;;;3.41;100.00
73651;BME280;61944;52.538;6.108;2023-02-15T00:08:30;102884.75;;;3.40;100.00
73651;BME280;61944;52.538;6.108;2023-02-15T00:11:12;102886.69;;;3.45;100.00
73651;BME280;61944;52.538;6.108;2023-02-15T00:13:38;102880.88;;;3.41;100.00
73651;BME280;61944;52.538;6.108;2023-02-15T00:16:08;102877.00;;;3.42;100.00
73651;BME280;61944;52.538;6.108;2023-02-15T00:18:34;102877.53;;;3.39;100.00
73651;BME280;61944;52.538;6.108;2023-02-15T00:21:04;102884.75;;;3.40;100.00
73651;BME280;61944;52.538;6.108;2023-02-15T00:23:30;102885.84;;;3.44;100.00
73651;BME280;61944;52.538;6.108;2023-02-15T00:26:10;102883.94;;;3.40;100.00
73651;BME280;61944;52.538;6.108;2023-02-15T00:28:36;102881.16;;;3.35;100.00
73651;BME280;61944;52.538;6.108;2023-02-15T00:31:10;102884.78;;;3.35;100.00
73651;BME280;61944;52.538;6.108;2023-02-15T00:33:36;102878.69;;;3.33;100.00
73651;BME280;61944;52.538;6.108;2023-02-15T00:36:03;102881.47;;;3.33;100.00
73651;BME280;61944;52.538;6.108;2023-02-15T00:38:29;102868.75;;;3.27;100.00
73651;BME280;61944;52.538;6.108;2023-02-15T00:40:57;102866.22;;;3.31;100.00
73651;BME280;61944;52.538;6.108;2023-02-15T00:43:23;102864.88;;;3.23;100.00
73651;BME280;61944;52.538;6.108;2023-02-15T00:45:48;102880.34;;;3.34;100.00
73651;BME280;61944;52.538;6.108;2023-02-15T00:48:14;102868.16;;;3.30;100.00
73651;BME280;61944;52.538;6.108;2023-02-15T00:50:39;102866.53;;;3.29;100.00
73651;BME280;61944;52.538;6.108;2023-02-15T00:53:05;102860.16;;;3.23;100.00
73651;BME280;61944;52.538;6.108;2023-02-15T00:55:30;102874.00;;;3.23;100.00
73651;BME280;61944;52.538;6.108;2023-02-15T00:57:56;102874.53;;;3.20;100.00
73651;BME280;61944;52.538;6.108;2023-02-15T01:00:21;102881.72;;;3.26;100.00
73651;BME280;61944;52.538;6.108;2023-02-15T01:02:46;102872.59;;;3.16;100.00
73651;BME280;61944;52.538;6.108;2023-02-15T01:05:12;102869.28;;;3.14;100.00
73651;BME280;61944;52.538;6.108;2023-02-15T01:07:37;102856.59;;;3.02;100.00
73651;BME280;61944;52.538;6.108;2023-02-15T01:10:05;102870.94;;;3.10;100.00
73651;BME280;61944;52.538;6.108;2023-02-15T01:12:30;102859.63;;;3.11;100.00
73651;BME280;61944;52.538;6.108;2023-02-15T01:14:56;102859.63;;;3.11;100.00
73651;BME280;61944;52.538;6.108;2023-02-15T01:17:21;102861.53;;;3.16;100.00
73651;BME280;61944;52.538;6.108;2023-02-15T01:19:46;102850.75;;;3.09;100.00
73651;BME280;61944;52.538;6.108;2023-02-15T01:22:12;102849.38;;;3.12;100.00
73651;BME280;61944;52.538;6.108;2023-02-15T01:24:37;102835.56;;;3.07;100.00
73651;BME280;61944;52.538;6.108;2023-02-15T01:27:03;102826.69;;;3.04;100.00
73651;BME280;61944;52.538;6.108;2023-02-15T01:29:28;102818.94;;;3.01;100.00
73651;BME280;61944;52.538;6.108;2023-02-15T01:31:53;102817.84;;;3.02;100.00
73651;BME280;61944;52.538;6.108;2023-02-15T01:34:19;102821.69;;;3.12;100.00
73651;BME280;61944;52.538;6.108;2023-02-15T01:36:44;102824.78;;;3.10;100.00
73651;BME280;61944;52.538;6.108;2023-02-15T01:39:09;102822.81;;;3.05;100.00
73651;BME280;61944;52.538;6.108;2023-02-15T01:41:35;102831.94;;;3.11;100.00
73651;BME280;61944;52.538;6.108;2023-02-15T01:44:02;102810.38;;;3.03;100.00
73651;BME280;61944;52.538;6.108;2023-02-15T01:46:33;102820.59;;;3.08;100.00
73651;BME280;61944;52.538;6.108;2023-02-15T01:49:07;102804.84;;;2.98;100.00
73651;BME280;61944;52.538;6.108;2023-02-15T01:51:35;102804.03;;;3.02;100.00
73651;BME280;61944;52.538;6.108;2023-02-15T01:54:23;102818.13;;;3.01;100.00
73651;BME280;61944;52.538;6.108;2023-02-15T01:56:52;102819.50;;;3.03;100.00
73651;BME280;61944;52.538;6.108;2023-02-15T01:59:21;102804.28;;;3.01;100.00
73651;BME280;61944;52.538;6.108;2023-02-15T02:01:50;102801.81;;;2.99;100.00
73651;BME280;61944;52.538;6.108;2023-02-15T02:04:23;102801.81;;;2.99;100.00
73651;BME280;61944;52.538;6.108;2023-02-15T02:06:51;102796.28;;;2.99;100.00
73651;BME280;61944;52.538;6.108;2023-02-15T02:09:17;102800.97;;;2.99;100.00
73651;BME280;61944;52.538;6.108;2023-02-15T02:11:44;102787.44;;;2.97;100.00
73651;BME280;61944;52.538;6.108;2023-02-15T02:14:11;102785.22;;;2.99;100.00
73651;BME280;61944;52.538;6.108;2023-02-15T02:16:46;102801.53;;;3.01;100.00
73651;BME280;61944;52.538;6.108;2023-02-15T02:19:34;102793.22;;;3.01;100.00
73651;BME280;61944;52.538;6.108;2023-02-15T02:41:30;102769.19;;;2.86;100.00
73651;BME280;61944;52.538;6.108;2023-02-15T02:44:27;102766.69;;;2.90;100.00
73651;BME280;61944;52.538;6.108;2023-02-15T02:47:11;102760.88;;;2.86;100.00
73651;BME280;61944;52.538;6.108;2023-02-15T02:49:41;102755.91;;;2.78;100.00
73651;BME280;61944;52.538;6.108;2023-02-15T02:52:37;102752.88;;;2.79;100.00
73651;BME280;61944;52.538;6.108;2023-02-15T02:55:16;102752.31;;;2.82;100.00
73651;BME280;61944;52.538;6.108;2023-02-15T03:00:45;102749.53;;;2.82;100.00
73651;BME280;61944;52.538;6.108;2023-02-15T03:03:38;102744.31;;;2.81;100.00
73651;BME280;61944;52.538;6.108;2023-02-15T03:06:12;102746.78;;;2.82;100.00
73651;BME280;61944;52.538;6.108;2023-02-15T03:08:47;102741.56;;;2.81;100.00
73651;BME280;61944;52.538;6.108;2023-02-15T03:11:14;102737.97;;;2.80;100.00
73651;BME280;61944;52.538;6.108;2023-02-15T03:13:40;102729.91;;;2.84;100.00
73651;BME280;61944;52.538;6.108;2023-02-15T03:16:06;102731.28;;;2.87;100.00
73651;BME280;61944;52.538;6.108;2023-02-15T03:19:03;102732.13;;;2.87;100.00
73651;BME280;61944;52.538;6.108;2023-02-15T03:21:38;102727.69;;;2.91;100.00
73651;BME280;61944;52.538;6.108;2023-02-15T03:24:14;102721.59;;;2.94;100.00
73651;BME280;61944;52.538;6.108;2023-02-15T03:26:43;102721.06;;;2.87;100.00
73651;BME280;61944;52.538;6.108;2023-02-15T03:29:11;102715.81;;;2.85;100.00
73651;BME280;61944;52.538;6.108;2023-02-15T03:31:40;102711.13;;;2.81;100.00
73651;BME280;61944;52.538;6.108;2023-02-15T03:34:10;102708.34;;;2.86;100.00
73651;BME280;61944;52.538;6.108;2023-02-15T03:36:39;102713.88;;;2.81;100.00
73651;BME280;61944;52.538;6.108;2023-02-15T03:39:20;102713.88;;;2.86;100.00
73651;BME280;61944;52.538;6.108;2023-02-15T03:44:59;102705.03;;;2.79;100.00
73651;BME280;61944;52.538;6.108;2023-02-15T03:47:31;102710.00;;;2.87;100.00
73651;BME280;61944;52.538;6.108;2023-02-15T03:50:05;102697.03;;;2.72;100.00
73651;BME280;61944;52.538;6.108;2023-02-15T03:52:54;102700.91;;;2.71;100.00
73651;BME280;61944;52.538;6.108;2023-02-15T03:55:22;102702.56;;;2.72;100.00
73651;BME280;61944;52.538;6.108;2023-02-15T03:57:47;102703.91;;;2.80;100.00
73651;BME280;61944;52.538;6.108;2023-02-15T04:00:35;102701.72;;;2.82;100.00
73651;BME280;61944;52.538;6.108;2023-02-15T04:03:40;102713.88;;;2.76;100.00
73651;BME280;61944;52.538;6.108;2023-02-15T04:06:06;102707.81;;;2.79;100.00
73651;BME280;61944;52.538;6.108;2023-02-15T04:08:32;102708.06;;;2.88;100.00
73651;BME280;61944;52.538;6.108;2023-02-15T04:11:16;102708.06;;;2.82;100.00
73651;BME280;61944;52.538;6.108;2023-02-15T04:13:42;102704.47;;;2.87;100.00
73651;BME280;61944;52.538;6.108;2023-02-15T04:16:07;102689.81;;;2.81;100.00
73651;BME280;61944;52.538;6.108;2023-02-15T04:21:22;102686.50;;;2.79;100.00
73651;BME280;61944;52.538;6.108;2023-02-15T04:24:08;102693.97;;;2.74;100.00
73651;BME280;61944;52.538;6.108;2023-02-15T04:26:52;102691.22;;;2.74;100.00
73651;BME280;61944;52.538;6.108;2023-02-15T04:29:19;102687.91;;;2.77;100.00
73651;BME280;61944;52.538;6.108;2023-02-15T04:31:45;102696.19;;;2.72;100.00
73651;BME280;61944;52.538;6.108;2023-02-15T04:34:10;102690.13;;;2.64;100.00
73651;BME280;61944;52.538;6.108;2023-02-15T04:36:39;102691.22;;;2.63;100.00
73651;BME280;61944;52.538;6.108;2023-02-15T04:39:06;102698.97;;;2.77;100.00
73651;BME280;61944;52.538;6.108;2023-02-15T04:41:32;102690.66;;;2.72;100.00
73651;BME280;61944;52.538;6.108;2023-02-15T04:43:58;102681.56;;;2.76;100.00
73651;BME280;61944;52.538;6.108;2023-02-15T04:46:24;102685.13;;;2.77;100.00
73651;BME280;61944;52.538;6.108;2023-02-15T04:48:50;102685.97;;;2.77;100.00
73651;BME280;61944;52.538;6.108;2023-02-15T04:51:15;102682.09;;;2.73;100.00
73651;BME280;61944;52.538;6.108;2023-02-15T04:53:41;102677.38;;;2.74;100.00
73651;BME280;61944;52.538;6.108;2023-02-15T04:56:06;102664.09;;;2.81;100.00
73651;BME280;61944;52.538;6.108;2023-02-15T04:58:32;102674.63;;;2.79;100.00
73651;BME280;61944;52.538;6.108;2023-02-15T05:00:57;102680.16;;;2.79;100.00
73651;BME280;61944;52.538;6.108;2023-02-15T05:03:23;102657.78;;;2.65;100.00
73651;BME280;61944;52.538;6.108;2023-02-15T05:05:49;102667.72;;;2.71;100.00
73651;BME280;61944;52.538;6.108;2023-02-15T05:08:14;102666.09;;;2.70;100.00
73651;BME280;61944;52.538;6.108;2023-02-15T05:10:40;102670.22;;;2.73;100.00
73651;BME280;61944;52.538;6.108;2023-02-15T05:13:05;102652.00;;;2.61;100.00
73651;BME280;61944;52.538;6.108;2023-02-15T05:15:31;102665.81;;;2.67;100.00
73651;BME280;61944;52.538;6.108;2023-02-15T05:17:56;102668.31;;;2.68;100.00
73651;BME280;61944;52.538;6.108;2023-02-15T05:20:21;102664.72;;;2.62;100.00
73651;BME280;61944;52.538;6.108;2023-02-15T05:22:47;102667.44;;;2.68;100.00
73651;BME280;61944;52.538;6.108;2023-02-15T05:25:12;102661.97;;;2.57;100.00
73651;BME280;61944;52.538;6.108;2023-02-15T05:27:56;102645.66;;;2.56;100.00
73651;BME280;61944;52.538;6.108;2023-02-15T05:30:40;102646.19;;;2.58;100.00
73651;BME280;61944;52.538;6.108;2023-02-15T05:33:06;102652.00;;;2.61;100.00
73651;BME280;61944;52.538;6.108;2023-02-15T05:35:33;102652.81;;;2.57;100.00
73651;BME280;61944;52.538;6.108;2023-02-15T05:37:58;102658.06;;;2.58;100.00
73651;BME280;61944;52.538;6.108;2023-02-15T05:40:24;102651.19;;;2.56;100.00
73651;BME280;61944;52.538;6.108;2023-02-15T05:42:49;102634.88;;;2.44;100.00
73651;BME280;61944;52.538;6.108;2023-02-15T05:45:14;102663.06;;;2.61;100.00
73651;BME280;61944;52.538;6.108;2023-02-15T05:47:41;102651.72;;;2.58;100.00
73651;BME280;61944;52.538;6.108;2023-02-15T05:50:07;102649.25;;;2.51;100.00
73651;BME280;61944;52.538;6.108;2023-02-15T05:52:33;102647.03;;;2.48;100.00
73651;BME280;61944;52.538;6.108;2023-02-15T05:54:58;102647.03;;;2.48;100.00
73651;BME280;61944;52.538;6.108;2023-02-15T05:57:25;102648.72;;;2.49;100.00
73651;BME280;61944;52.538;6.108;2023-02-15T05:59:51;102654.78;;;2.51;100.00
73651;BME280;61944;52.538;6.108;2023-02-15T06:02:16;102629.91;;;2.36;100.00
73651;BME280;61944;52.538;6.108;2023-02-15T06:04:42;102637.66;;;2.49;100.00
73651;BME280;61944;52.538;6.108;2023-02-15T06:07:07;102637.94;;;2.48;100.00
73651;BME280;61944;52.538;6.108;2023-02-15T06:09:32;102647.59;;;2.55;100.00
73651;BME280;61944;52.538;6.108;2023-02-15T06:11:58;102652.28;;;2.50;100.00
73651;BME280;61944;52.538;6.108;2023-02-15T06:14:23;102651.75;;;2.48;100.00
73651;BME280;61944;52.538;6.108;2023-02-15T06:16:48;102662.81;;;2.48;100.00
73651;BME280;61944;52.538;6.108;2023-02-15T06:19:14;102653.13;;;2.45;100.00
73651;BME280;61944;52.538;6.108;2023-02-15T06:21:39;102655.59;;;2.47;100.00
73651;BME280;61944;52.538;6.108;2023-02-15T06:24:05;102656.19;;;2.43;100.00
73651;BME280;61944;52.538;6.108;2023-02-15T06:26:30;102642.63;;;2.42;100.00
73651;BME280;61944;52.538;6.108;2023-02-15T06:28:55;102629.91;;;2.36;100.00
73651;BME280;61944;52.538;6.108;2023-02-15T06:31:21;102643.75;;;2.41;100.00
73651;BME280;61944;52.538;6.108;2023-02-15T06:33:46;102645.41;;;2.32;100.00
73651;BME280;61944;52.538;6.108;2023-02-15T06:36:11;102643.22;;;2.29;100.00
73651;BME280;61944;52.538;6.108;2023-02-15T06:38:37;102642.13;;;2.19;100.00
73651;BME280;61944;52.538;6.108;2023-02-15T06:41:03;102645.13;;;2.23;100.00
73651;BME280;61944;52.538;6.108;2023-02-15T06:43:28;102639.91;;;2.21;100.00
73651;BME280;61944;52.538;6.108;2023-02-15T06:45:54;102646.25;;;2.22;100.00
73651;BME280;61944;52.538;6.108;2023-02-15T06:48:19;102645.13;;;2.23;100.00
73651;BME280;61944;52.538;6.108;2023-02-15T06:50:44;102640.47;;;2.23;100.00
73651;BME280;61944;52.538;6.108;2023-02-15T06:53:10;102642.38;;;2.28;100.00
73651;BME280;61944;52.538;6.108;2023-02-15T06:55:35;102641.53;;;2.28;100.00
73651;BME280;61944;52.538;6.108;2023-02-15T06:58:00;102627.16;;;2.26;100.00
73651;BME280;61944;52.538;6.108;2023-02-15T07:00:26;102641.00;;;2.31;100.00
73651;BME280;61944;52.538;6.108;2023-02-15T07:02:57;102631.72;;;2.87;100.00
73651;BME280;61944;52.538;6.108;2023-02-15T07:05:23;102623.13;;;2.88;100.00
73651;BME280;61944;52.538;6.108;2023-02-15T07:07:49;102628.50;;;2.59;100.00
73651;BME280;61944;52.538;6.108;2023-02-15T07:10:15;102623.50;;;3.26;100.00
73651;BME280;61944;52.538;6.108;2023-02-15T07:12:40;102631.78;;;2.71;100.00
73651;BME280;61944;52.538;6.108;2023-02-15T07:15:17;102629.88;;;2.56;100.00
73651;BME280;61944;52.538;6.108;2023-02-15T07:17:43;102619.44;;;2.22;100.00
73651;BME280;61944;52.538;6.108;2023-02-15T07:20:15;102621.13;;;2.23;100.00
73651;BME280;61944;52.538;6.108;2023-02-15T07:22:41;102616.69;;;2.33;100.00
73651;BME280;61944;52.538;6.108;2023-02-15T07:25:09;102620.56;;;2.27;100.00
73651;BME280;61944;52.538;6.108;2023-02-15T07:27:35;102610.91;;;2.14;100.00
73651;BME280;61944;52.538;6.108;2023-02-15T07:30:02;102624.13;;;2.27;100.00
73651;BME280;61944;52.538;6.108;2023-02-15T07:32:29;102620.53;;;2.32;100.00
73651;BME280;61944;52.538;6.108;2023-02-15T07:34:55;102612.59;;;2.05;100.00
73651;BME280;61944;52.538;6.108;2023-02-15T07:37:20;102610.63;;;2.05;100.00
73651;BME280;61944;52.538;6.108;2023-02-15T07:39:45;102613.13;;;1.96;100.00
73651;BME280;61944;52.538;6.108;2023-02-15T07:42:11;102606.22;;;1.99;100.00
73651;BME280;61944;52.538;6.108;2023-02-15T07:44:36;102604.28;;;1.99;100.00
73651;BME280;61944;52.538;6.108;2023-02-15T07:47:01;102609.53;;;2.11;100.00
73651;BME280;61944;52.538;6.108;2023-02-15T07:49:27;102604.47;;;2.49;100.00
73651;BME280;61944;52.538;6.108;2023-02-15T07:51:53;102602.59;;;2.24;100.00
73651;BME280;61944;52.538;6.108;2023-02-15T07:54:18;102610.34;;;2.22;100.00
73651;BME280;61944;52.538;6.108;2023-02-15T07:56:43;102601.22;;;2.16;100.00
73651;BME280;61944;52.538;6.108;2023-02-15T07:59:09;102602.06;;;2.22;100.00
73651;BME280;61944;52.538;6.108;2023-02-15T08:01:36;102595.16;;;2.19;100.00
73651;BME280;61944;52.538;6.108;2023-02-15T08:04:03;102598.19;;;2.28;100.00
73651;BME280;61944;52.538;6.108;2023-02-15T08:06:32;102586.31;;;2.22;100.00
73651;BME280;61944;52.538;6.108;2023-02-15T08:08:58;102590.75;;;2.03;100.00
73651;BME280;61944;52.538;6.108;2023-02-15T08:11:29;102595.97;;;2.20;100.00
73651;BME280;61944;52.538;6.108;2023-02-15T08:14:09;102578.81;;;2.23;100.00
73651;BME280;61944;52.538;6.108;2023-02-15T08:16:42;102595.69;;;2.27;100.00
73651;BME280;61944;52.538;6.108;2023-02-15T08:19:19;102594.00;;;2.26;100.00
73651;BME280;61944;52.538;6.108;2023-02-15T08:21:47;102581.88;;;2.27;100.00
73651;BME280;61944;52.538;6.108;2023-02-15T08:24:15;102584.38;;;2.28;100.00
73651;BME280;61944;52.538;6.108;2023-02-15T08:26:41;102577.72;;;2.34;100.00
73651;BME280;61944;52.538;6.108;2023-02-15T08:29:07;102584.88;;;2.40;100.00
73651;BME280;61944;52.538;6.108;2023-02-15T08:31:33;102582.94;;;2.41;100.00
73651;BME280;61944;52.538;6.108;2023-02-15T08:33:59;102574.06;;;2.44;100.00
73651;BME280;61944;52.538;6.108;2023-02-15T08:36:29;102567.47;;;2.40;100.00
73651;BME280;61944;52.538;6.108;2023-02-15T08:39:01;102564.13;;;2.48;100.00
73651;BME280;61944;52.538;6.108;2023-02-15T08:41:29;102568.56;;;2.44;100.00
73651;BME280;61944;52.538;6.108;2023-02-15T08:43:57;102571.03;;;2.46;100.00
73651;BME280;61944;52.538;6.108;2023-02-15T08:46:24;102569.66;;;2.48;100.00
73651;BME280;61944;52.538;6.108;2023-02-15T08:48:51;102563.84;;;2.50;100.00
73651;BME280;61944;52.538;6.108;2023-02-15T08:51:22;102561.31;;;2.58;100.00
73651;BME280;61944;52.538;6.108;2023-02-15T08:53:51;102556.31;;;2.65;100.00
73651;BME280;61944;52.538;6.108;2023-02-15T08:56:18;102560.13;;;2.80;100.00
73651;BME280;61944;52.538;6.108;2023-02-15T08:58:44;102554.06;;;2.73;100.00
73651;BME280;61944;52.538;6.108;2023-02-15T09:01:11;102557.69;;;2.68;100.00
73651;BME280;61944;52.538;6.108;2023-02-15T09:03:37;102552.69;;;2.75;100.00
73651;BME280;61944;52.538;6.108;2023-02-15T09:06:03;102557.91;;;2.82;100.00
73651;BME280;61944;52.538;6.108;2023-02-15T09:08:29;102551.28;;;2.78;100.00
73651;BME280;61944;52.538;6.108;2023-02-15T09:10:54;102551.22;;;2.88;100.00
73651;BME280;61944;52.538;6.108;2023-02-15T09:13:20;102544.59;;;2.89;100.00
73651;BME280;61944;52.538;6.108;2023-02-15T09:15:46;102537.97;;;2.85;100.00
73651;BME280;61944;52.538;6.108;2023-02-15T09:18:12;102539.56;;;2.96;100.00
73651;BME280;61944;52.538;6.108;2023-02-15T09:20:42;102542.28;;;3.07;100.00
73651;BME280;61944;52.538;6.108;2023-02-15T09:23:08;102537.25;;;3.14;100.00
73651;BME280;61944;52.538;6.108;2023-02-15T09:25:34;102536.91;;;3.20;100.00
73651;BME280;61944;52.538;6.108;2023-02-15T09:27:59;102530.50;;;3.30;100.00
73651;BME280;61944;52.538;6.108;2023-02-15T09:30:24;102524.13;;;3.30;100.00
73651;BME280;61944;52.538;6.108;2023-02-15T09:32:50;102527.13;;;3.38;100.00
73651;BME280;61944;52.538;6.108;2023-02-15T09:35:15;102521.00;;;3.41;100.00
73651;BME280;61944;52.538;6.108;2023-02-15T09:37:40;102530.09;;;3.47;100.00
73651;BME280;61944;52.538;6.108;2023-02-15T09:40:06;102529.75;;;3.54;100.00
73651;BME280;61944;52.538;6.108;2023-02-15T09:42:47;102526.44;;;3.52;100.00
73651;BME280;61944;52.538;6.108;2023-02-15T09:48:28;102539.84;;;3.74;100.00
73651;BME280;61944;52.538;6.108;2023-02-15T09:56:28;102542.84;;;4.06;100.00
73651;BME280;61944;52.538;6.108;2023-02-15T10:05:05;102533.78;;;4.25;100.00
73651;BME280;61944;52.538;6.108;2023-02-15T10:10:57;102535.50;;;4.45;100.00
73651;BME280;61944;52.538;6.108;2023-02-15T10:23:12;102528.44;;;4.77;100.00
73651;BME280;61944;52.538;6.108;2023-02-15T10:28:51;102525.91;;;4.99;100.00
73651;BME280;61944;52.538;6.108;2023-02-15T10:31:25;102535.22;;;5.08;100.00
73651;BME280;61944;52.538;6.108;2023-02-15T10:36:44;102545.47;;;5.27;100.00
73651;BME280;61944;52.538;6.108;2023-02-15T10:39:27;102539.75;;;5.37;100.00
73651;BME280;61944;52.538;6.108;2023-02-15T10:42:10;102538.19;;;5.31;100.00
73651;BME280;61944;52.538;6.108;2023-02-15T10:47:31;102540.59;;;5.57;100.00
73651;BME280;61944;52.538;6.108;2023-02-15T10:50:13;102532.16;;;5.62;100.00
73651;BME280;61944;52.538;6.108;2023-02-15T10:53:05;102531.88;;;5.77;100.00
73651;BME280;61944;52.538;6.108;2023-02-15T10:58:13;102524.66;;;5.95;100.00
73651;BME280;61944;52.538;6.108;2023-02-15T11:06:08;102534.66;;;6.24;100.00
73651;BME280;61944;52.538;6.108;2023-02-15T11:08:43;102511.53;;;6.28;100.00
73651;BME280;61944;52.538;6.108;2023-02-15T11:11:12;102510.25;;;6.62;100.00
73651;BME280;61944;52.538;6.108;2023-02-15T11:13:44;102502.47;;;6.37;100.00
73651;BME280;61944;52.538;6.108;2023-02-15T11:16:22;102501.72;;;6.59;100.00
73651;BME280;61944;52.538;6.108;2023-02-15T11:19:01;102506.91;;;6.88;100.00
73651;BME280;61944;52.538;6.108;2023-02-15T11:21:33;102507.72;;;6.88;100.00
73651;BME280;61944;52.538;6.108;2023-02-15T11:24:13;102495.84;;;6.97;100.00
73651;BME280;61944;52.538;6.108;2023-02-15T11:26:46;102491.06;;;6.75;100.00
73651;BME280;61944;52.538;6.108;2023-02-15T11:29:25;102498.59;;;7.10;100.00
73651;BME280;61944;52.538;6.108;2023-02-15T11:32:03;102500.25;;;7.11;100.00
73651;BME280;61944;52.538;6.108;2023-02-15T11:34:40;102499.66;;;7.01;100.00
73651;BME280;61944;52.538;6.108;2023-02-15T11:37:17;102495.03;;;7.19;100.00
73651;BME280;61944;52.538;6.108;2023-02-15T11:39:43;102482.25;;;7.63;100.00
73651;BME280;61944;52.538;6.108;2023-02-15T11:42:19;102474.91;;;7.67;100.00
73651;BME280;61944;52.538;6.108;2023-02-15T11:45:07;102480.88;;;7.51;100.00
73651;BME280;61944;52.538;6.108;2023-02-15T11:47:35;102472.97;;;7.67;100.00
73651;BME280;61944;52.538;6.108;2023-02-15T11:50:00;102475.34;;;7.83;100.00
73651;BME280;61944;52.538;6.108;2023-02-15T11:52:26;102474.41;;;7.96;100.00
73651;BME280;61944;52.538;6.108;2023-02-15T11:54:52;102476.22;;;7.69;100.00
73651;BME280;61944;52.538;6.108;2023-02-15T12:00:35;102457.56;;;8.10;100.00
73651;BME280;61944;52.538;6.108;2023-02-15T12:03:24;102451.22;;;8.18;100.00
73651;BME280;61944;52.538;6.108;2023-02-15T12:05:57;102446.81;;;8.34;100.00
73651;BME280;61944;52.538;6.108;2023-02-15T12:08:23;102448.91;;;8.20;100.00
73651;BME280;61944;52.538;6.108;2023-02-15T12:11:11;102456.78;;;8.18;100.00
73651;BME280;61944;52.538;6.108;2023-02-15T12:16:21;102442.00;;;8.26;100.00
73651;BME280;61944;52.538;6.108;2023-02-15T12:18:47;102444.91;;;8.44;100.00
73651;BME280;61944;52.538;6.108;2023-02-15T12:21:25;102435.00;;;8.38;100.00
73651;BME280;61944;52.538;6.108;2023-02-15T12:23:54;102423.84;;;8.38;100.00
73651;BME280;61944;52.538;6.108;2023-02-15T12:26:26;102428.16;;;8.44;100.00
73651;BME280;61944;52.538;6.108;2023-02-15T12:28:52;102431.66;;;8.67;100.00
73651;BME280;61944;52.538;6.108;2023-02-15T12:31:26;102417.19;;;8.56;100.00
73651;BME280;61944;52.538;6.108;2023-02-15T12:33:56;102409.13;;;8.63;100.00
73651;BME280;61944;52.538;6.108;2023-02-15T12:36:32;102412.75;;;8.72;100.00
73651;BME280;61944;52.538;6.108;2023-02-15T12:39:19;102414.06;;;8.84;100.00
73651;BME280;61944;52.538;6.108;2023-02-15T12:44:22;102399.13;;;8.97;100.00
73651;BME280;61944;52.538;6.108;2023-02-15T12:46:56;102387.75;;;9.02;99.71
73651;BME280;61944;52.538;6.108;2023-02-15T12:49:23;102383.16;;;9.06;98.51
73651;BME280;61944;52.538;6.108;2023-02-15T12:51:55;102381.34;;;9.10;98.99
73651;BME280;61944;52.538;6.108;2023-02-15T12:54:31;102392.84;;;9.18;98.15
73651;BME280;61944;52.538;6.108;2023-02-15T12:56:58;102376.88;;;9.27;98.51
73651;BME280;61944;52.538;6.108;2023-02-15T12:59:24;102369.97;;;9.33;97.50
73651;BME280;61944;52.538;6.108;2023-02-15T13:01:52;102373.25;;;9.35;98.29
73651;BME280;61944;52.538;6.108;2023-02-15T13:04:24;102378.19;;;9.29;97.82
73651;BME280;61944;52.538;6.108;2023-02-15T13:06:53;102370.25;;;9.40;97.29
73651;BME280;61944;52.538;6.108;2023-02-15T13:09:41;102369.91;;;9.50;96.36
73651;BME280;61944;52.538;6.108;2023-02-15T13:12:20;102370.38;;;9.52;97.27
73651;BME280;61944;52.538;6.108;2023-02-15T13:14:47;102374.47;;;9.64;97.29
73651;BME280;61944;52.538;6.108;2023-02-15T13:17:16;102375.09;;;9.69;95.71
73651;BME280;61944;52.538;6.108;2023-02-15T13:19:51;102365.91;;;9.69;95.29
73651;BME280;61944;52.538;6.108;2023-02-15T13:22:45;102359.03;;;9.96;93.07
73651;BME280;61944;52.538;6.108;2023-02-15T13:25:14;102353.47;;;9.87;92.04
73651;BME280;61944;52.538;6.108;2023-02-15T13:27:44;102350.09;;;10.03;92.21
73651;BME280;61944;52.538;6.108;2023-02-15T13:30:20;102339.81;;;10.15;91.73
73651;BME280;61944;52.538;6.108;2023-02-15T13:32:49;102335.94;;;9.99;90.65
73651;BME280;61944;52.538;6.108;2023-02-15T13:35:17;102325.09;;;10.27;89.75
73651;BME280;61944;52.538;6.108;2023-02-15T13:38:09;102319.88;;;10.17;89.54
73651;BME280;61944;52.538;6.108;2023-02-15T13:41:03;102314.41;;;10.50;88.20
73651;BME280;61944;52.538;6.108;2023-02-15T14:05:39;102308.69;;;10.17;88.50
73651;BME280;61944;52.538;6.108;2023-02-15T14:16:45;102315.50;;;10.28;91.42
73651;BME280;61944;52.538;6.108;2023-02-15T14:24:56;102313.38;;;10.34;89.65
73651;BME280;61944;52.538;6.108;2023-02-15T14:30:15;102300.41;;;10.29;88.26
73651;BME280;61944;52.538;6.108;2023-02-15T14:32:46;102293.53;;;10.18;88.61
73651;BME280;61944;52.538;6.108;2023-02-15T14:35:25;102300.44;;;10.96;85.55
73651;BME280;61944;52.538;6.108;2023-02-15T14:49:16;102297.34;;;10.13;89.47
73651;BME280;61944;52.538;6.108;2023-02-15T14:54:10;102301.38;;;10.04;90.42
73651;BME280;61944;52.538;6.108;2023-02-15T14:56:36;102306.28;;;10.07;90.50
73651;BME280;61944;52.538;6.108;2023-02-15T14:59:15;102298.28;;;9.96;90.79
73651;BME280;61944;52.538;6.108;2023-02-15T15:01:51;102307.47;;;10.06;91.06
73651;BME280;61944;52.538;6.108;2023-02-15T15:04:33;102303.06;;;9.96;90.78
73651;BME280;61944;52.538;6.108;2023-02-15T15:07:08;102303.06;;;9.96;91.63
73651;BME280;61944;52.538;6.108;2023-02-15T15:09:37;102307.56;;;9.88;91.74
73651;BME280;61944;52.538;6.108;2023-02-15T15:14:48;102305.59;;;9.89;91.96
73651;BME280;61944;52.538;6.108;2023-02-15T15:20:13;102296.41;;;9.80;92.52
73651;BME280;61944;52.538;6.108;2023-02-15T15:22:43;102293.97;;;9.78;93.25
73651;BME280;61944;52.538;6.108;2023-02-15T15:25:09;102290.22;;;9.74;94.04